Andrew, Iowa
Current Conditions -  °F | °C
As of 8:53 PM on Monday 20 Oct 2014 (Local Time) from KDBQ Reporting Station
Clear Clear  
Wind Chill: 52°   Ceiling: Unl
Heat Index: 52°   Visibility: 10mi
Dew Point: 42°   Wind: 6mph
Humidity: 69%   Direction: 40°NE
Pressure: 30.01"   Gusts: NA
Location:  42.15°N, 90.59°W
Report Text: KDBQ 210153Z AUTO 04005KT 10SM CLR 11/06 A3001 RMK AO2 SLP166 T01110056
Loading
Personal Weather Stations






























Interactive Weather Map
Tropical Storm Tracking
New forecast layout! Learn more

10-Day Weather Forecast

Advertisements
Track Severe Weather on mobile